sensor_id;sensor_type;location;lat;lon;timestamp;temperature;humidity
64924;HTU21D;51436;44.692;39.214;2022-07-06T00:01:51;20.56;68.36
64924;HTU21D;51436;44.692;39.214;2022-07-06T00:04:19;20.57;68.28
64924;HTU21D;51436;44.692;39.214;2022-07-06T00:06:46;20.57;68.23
64924;HTU21D;51436;44.692;39.214;2022-07-06T00:09:12;20.57;68.19
64924;HTU21D;51436;44.692;39.214;2022-07-06T00:11:39;20.57;68.14
64924;HTU21D;51436;44.692;39.214;2022-07-06T00:14:06;20.59;68.05
64924;HTU21D;51436;44.692;39.214;2022-07-06T00:16:33;20.57;68.04
64924;HTU21D;51436;44.692;39.214;2022-07-06T00:21:46;20.49;68.13
64924;HTU21D;51436;44.692;39.214;2022-07-06T00:24:12;20.41;68.30
64924;HTU21D;51436;44.692;39.214;2022-07-06T00:26:39;20.40;68.30
64924;HTU21D;51436;44.692;39.214;2022-07-06T00:29:07;20.36;68.34
64924;HTU21D;51436;44.692;39.214;2022-07-06T00:34:27;20.30;68.32
64924;HTU21D;51436;44.692;39.214;2022-07-06T00:36:54;20.27;68.34
64924;HTU21D;51436;44.692;39.214;2022-07-06T00:39:21;20.22;68.39
64924;HTU21D;51436;44.692;39.214;2022-07-06T00:41:49;20.21;68.36
64924;HTU21D;51436;44.692;39.214;2022-07-06T00:44:15;20.22;68.24
64924;HTU21D;51436;44.692;39.214;2022-07-06T00:46:42;20.20;68.24
64924;HTU21D;51436;44.692;39.214;2022-07-06T00:49:08;20.20;68.19
64924;HTU21D;51436;44.692;39.214;2022-07-06T00:51:56;20.19;68.17
64924;HTU21D;51436;44.692;39.214;2022-07-06T00:54:24;20.19;68.08
64924;HTU21D;51436;44.692;39.214;2022-07-06T00:56:54;20.19;68.09
64924;HTU21D;51436;44.692;39.214;2022-07-06T00:59:24;20.16;68.14
64924;HTU21D;51436;44.692;39.214;2022-07-06T01:01:52;20.12;68.17
64924;HTU21D;51436;44.692;39.214;2022-07-06T01:04:19;20.09;68.21
64924;HTU21D;51436;44.692;39.214;2022-07-06T01:06:46;20.11;68.10
64924;HTU21D;51436;44.692;39.214;2022-07-06T01:09:13;20.06;68.13
64924;HTU21D;51436;44.692;39.214;2022-07-06T01:11:41;20.00;68.26
64924;HTU21D;51436;44.692;39.214;2022-07-06T01:14:08;19.98;68.30
64924;HTU21D;51436;44.692;39.214;2022-07-06T01:16:35;19.98;68.20
64924;HTU21D;51436;44.692;39.214;2022-07-06T01:19:02;19.98;68.13
64924;HTU21D;51436;44.692;39.214;2022-07-06T01:21:29;19.94;68.21
64924;HTU21D;51436;44.692;39.214;2022-07-06T01:24:08;19.92;68.22
64924;HTU21D;51436;44.692;39.214;2022-07-06T01:26:34;19.92;68.13
64924;HTU21D;51436;44.692;39.214;2022-07-06T01:29:01;19.89;68.17
64924;HTU21D;51436;44.692;39.214;2022-07-06T01:31:28;19.90;68.13
64924;HTU21D;51436;44.692;39.214;2022-07-06T01:33:57;19.91;68.07
64924;HTU21D;51436;44.692;39.214;2022-07-06T01:36:23;19.90;68.01
64924;HTU21D;51436;44.692;39.214;2022-07-06T01:38:53;19.90;67.97
64924;HTU21D;51436;44.692;39.214;2022-07-06T01:41:20;19.88;68.01
64924;HTU21D;51436;44.692;39.214;2022-07-06T01:43:47;19.86;68.01
64924;HTU21D;51436;44.692;39.214;2022-07-06T01:46:15;19.84;68.11
64924;HTU21D;51436;44.692;39.214;2022-07-06T01:48:42;19.80;68.22
64924;HTU21D;51436;44.692;39.214;2022-07-06T01:51:09;19.79;68.27
64924;HTU21D;51436;44.692;39.214;2022-07-06T01:53:37;19.79;68.31
64924;HTU21D;51436;44.692;39.214;2022-07-06T01:56:05;19.82;68.33
64924;HTU21D;51436;44.692;39.214;2022-07-06T01:58:32;19.85;68.22
64924;HTU21D;51436;44.692;39.214;2022-07-06T02:00:59;19.86;68.19
64924;HTU21D;51436;44.692;39.214;2022-07-06T02:03:26;19.88;68.12
64924;HTU21D;51436;44.692;39.214;2022-07-06T02:05:53;19.90;68.02
64924;HTU21D;51436;44.692;39.214;2022-07-06T02:08:20;19.91;67.97
64924;HTU21D;51436;44.692;39.214;2022-07-06T02:10:47;20.11;67.48
64924;HTU21D;51436;44.692;39.214;2022-07-06T02:13:14;20.43;66.74
64924;HTU21D;51436;44.692;39.214;2022-07-06T02:15:40;20.77;65.94
64924;HTU21D;51436;44.692;39.214;2022-07-06T02:18:07;21.10;65.12
64924;HTU21D;51436;44.692;39.214;2022-07-06T02:20:34;21.42;64.37
64924;HTU21D;51436;44.692;39.214;2022-07-06T02:23:01;21.75;63.60
64924;HTU21D;51436;44.692;39.214;2022-07-06T02:25:27;22.04;62.95
64924;HTU21D;51436;44.692;39.214;2022-07-06T02:27:55;22.40;62.08
64924;HTU21D;51436;44.692;39.214;2022-07-06T02:30:22;22.71;61.31
64924;HTU21D;51436;44.692;39.214;2022-07-06T02:32:49;23.03;60.49
64924;HTU21D;51436;44.692;39.214;2022-07-06T02:35:16;23.29;59.76
64924;HTU21D;51436;44.692;39.214;2022-07-06T02:37:43;23.56;59.02
64924;HTU21D;51436;44.692;39.214;2022-07-06T02:40:10;23.82;58.15
64924;HTU21D;51436;44.692;39.214;2022-07-06T02:42:40;23.91;57.80
64924;HTU21D;51436;44.692;39.214;2022-07-06T02:45:09;23.73;58.22
64924;HTU21D;51436;44.692;39.214;2022-07-06T02:47:36;23.50;59.01
64924;HTU21D;51436;44.692;39.214;2022-07-06T02:50:05;23.30;59.64
64924;HTU21D;51436;44.692;39.214;2022-07-06T02:52:32;23.17;60.05
64924;HTU21D;51436;44.692;39.214;2022-07-06T02:55:00;23.12;60.32
64924;HTU21D;51436;44.692;39.214;2022-07-06T02:57:28;23.07;60.53
64924;HTU21D;51436;44.692;39.214;2022-07-06T02:59:54;23.05;60.68
64924;HTU21D;51436;44.692;39.214;2022-07-06T03:02:21;22.97;61.06
64924;HTU21D;51436;44.692;39.214;2022-07-06T03:04:47;23.02;61.08
64924;HTU21D;51436;44.692;39.214;2022-07-06T03:07:15;23.03;61.12
64924;HTU21D;51436;44.692;39.214;2022-07-06T03:09:43;23.05;61.20
64924;HTU21D;51436;44.692;39.214;2022-07-06T03:12:10;23.09;61.22
64924;HTU21D;51436;44.692;39.214;2022-07-06T03:14:40;23.08;61.36
64924;HTU21D;51436;44.692;39.214;2022-07-06T03:17:07;23.16;61.21
64924;HTU21D;51436;44.692;39.214;2022-07-06T03:19:34;23.26;61.11
64924;HTU21D;51436;44.692;39.214;2022-07-06T03:22:02;23.32;61.00
64924;HTU21D;51436;44.692;39.214;2022-07-06T03:24:29;23.39;61.02
64924;HTU21D;51436;44.692;39.214;2022-07-06T03:27:01;23.46;60.87
64924;HTU21D;51436;44.692;39.214;2022-07-06T03:29:28;23.50;60.89
64924;HTU21D;51436;44.692;39.214;2022-07-06T03:31:55;23.60;60.74
64924;HTU21D;51436;44.692;39.214;2022-07-06T03:34:26;23.69;60.60
64924;HTU21D;51436;44.692;39.214;2022-07-06T03:36:54;23.74;60.55
64924;HTU21D;51436;44.692;39.214;2022-07-06T03:39:23;23.79;60.51
64924;HTU21D;51436;44.692;39.214;2022-07-06T03:41:51;23.85;60.47
64924;HTU21D;51436;44.692;39.214;2022-07-06T03:44:19;23.95;60.36
64924;HTU21D;51436;44.692;39.214;2022-07-06T03:46:46;24.04;60.25
64924;HTU21D;51436;44.692;39.214;2022-07-06T03:49:13;24.09;60.24
64924;HTU21D;51436;44.692;39.214;2022-07-06T03:51:40;24.18;60.08
64924;HTU21D;51436;44.692;39.214;2022-07-06T03:54:07;24.32;60.02
64924;HTU21D;51436;44.692;39.214;2022-07-06T03:56:34;24.47;59.81
64924;HTU21D;51436;44.692;39.214;2022-07-06T03:59:11;24.54;59.73
64924;HTU21D;51436;44.692;39.214;2022-07-06T04:01:57;24.63;59.64
64924;HTU21D;51436;44.692;39.214;2022-07-06T04:04:24;24.62;59.41
64924;HTU21D;51436;44.692;39.214;2022-07-06T04:06:51;24.64;59.49
64924;HTU21D;51436;44.692;39.214;2022-07-06T04:09:18;24.58;59.83
64924;HTU21D;51436;44.692;39.214;2022-07-06T04:11:46;24.68;59.67
64924;HTU21D;51436;44.692;39.214;2022-07-06T04:14:13;24.80;59.33
64924;HTU21D;51436;44.692;39.214;2022-07-06T04:20:03;24.80;59.32
64924;HTU21D;51436;44.692;39.214;2022-07-06T04:22:30;24.83;59.40
64924;HTU21D;51436;44.692;39.214;2022-07-06T04:24:57;24.97;59.15
64924;HTU21D;51436;44.692;39.214;2022-07-06T04:27:24;25.03;59.20
64924;HTU21D;51436;44.692;39.214;2022-07-06T04:29:53;25.16;58.88
64924;HTU21D;51436;44.692;39.214;2022-07-06T04:32:19;25.33;58.51
64924;HTU21D;51436;44.692;39.214;2022-07-06T04:34:46;25.45;58.16
64924;HTU21D;51436;44.692;39.214;2022-07-06T04:37:13;25.56;58.25
64924;HTU21D;51436;44.692;39.214;2022-07-06T04:39:40;25.68;58.29
64924;HTU21D;51436;44.692;39.214;2022-07-06T04:42:06;25.79;57.58
64924;HTU21D;51436;44.692;39.214;2022-07-06T04:44:33;25.82;57.29
64924;HTU21D;51436;44.692;39.214;2022-07-06T04:47:00;25.89;57.23
64924;HTU21D;51436;44.692;39.214;2022-07-06T04:49:27;25.92;57.46
64924;HTU21D;51436;44.692;39.214;2022-07-06T04:51:54;25.96;57.58
64924;HTU21D;51436;44.692;39.214;2022-07-06T04:54:21;25.98;57.49
64924;HTU21D;51436;44.692;39.214;2022-07-06T04:56:47;25.92;57.22
64924;HTU21D;51436;44.692;39.214;2022-07-06T04:59:15;25.92;57.17
64924;HTU21D;51436;44.692;39.214;2022-07-06T05:01:42;25.83;57.43
64924;HTU21D;51436;44.692;39.214;2022-07-06T05:04:10;25.78;57.42
64924;HTU21D;51436;44.692;39.214;2022-07-06T05:06:47;25.76;57.46
64924;HTU21D;51436;44.692;39.214;2022-07-06T05:09:14;25.73;57.61
64924;HTU21D;51436;44.692;39.214;2022-07-06T05:11:41;25.76;57.84
64924;HTU21D;51436;44.692;39.214;2022-07-06T05:14:09;25.87;57.63
64924;HTU21D;51436;44.692;39.214;2022-07-06T05:16:36;26.03;57.82
64924;HTU21D;51436;44.692;39.214;2022-07-06T05:19:03;26.09;57.42
64924;HTU21D;51436;44.692;39.214;2022-07-06T05:21:30;26.06;57.63
64924;HTU21D;51436;44.692;39.214;2022-07-06T05:23:56;26.06;57.40
64924;HTU21D;51436;44.692;39.214;2022-07-06T05:26:23;26.09;57.35
64924;HTU21D;51436;44.692;39.214;2022-07-06T05:28:50;26.13;56.97
64924;HTU21D;51436;44.692;39.214;2022-07-06T05:31:19;26.01;57.33
64924;HTU21D;51436;44.692;39.214;2022-07-06T05:33:46;25.98;57.50
64924;HTU21D;51436;44.692;39.214;2022-07-06T05:36:12;26.05;57.78
64924;HTU21D;51436;44.692;39.214;2022-07-06T05:38:39;26.18;57.55
64924;HTU21D;51436;44.692;39.214;2022-07-06T05:41:06;26.23;57.31
64924;HTU21D;51436;44.692;39.214;2022-07-06T05:43:37;26.30;57.18
64924;HTU21D;51436;44.692;39.214;2022-07-06T05:46:04;26.32;57.26
64924;HTU21D;51436;44.692;39.214;2022-07-06T05:48:33;26.35;57.53
64924;HTU21D;51436;44.692;39.214;2022-07-06T05:51:19;26.36;57.17
64924;HTU21D;51436;44.692;39.214;2022-07-06T05:53:46;26.27;57.15
64924;HTU21D;51436;44.692;39.214;2022-07-06T05:56:14;26.19;57.18
64924;HTU21D;51436;44.692;39.214;2022-07-06T05:58:40;26.20;57.21
64924;HTU21D;51436;44.692;39.214;2022-07-06T06:01:07;26.21;57.27
64924;HTU21D;51436;44.692;39.214;2022-07-06T06:03:37;26.23;57.52
64924;HTU21D;51436;44.692;39.214;2022-07-06T06:06:05;26.21;57.22
64924;HTU21D;51436;44.692;39.214;2022-07-06T06:08:32;26.15;57.45
64924;HTU21D;51436;44.692;39.214;2022-07-06T06:10:59;26.17;57.34
64924;HTU21D;51436;44.692;39.214;2022-07-06T06:13:29;26.24;57.82
64924;HTU21D;51436;44.692;39.214;2022-07-06T06:15:55;26.38;57.59
64924;HTU21D;51436;44.692;39.214;2022-07-06T06:18:22;26.45;57.29
64924;HTU21D;51436;44.692;39.214;2022-07-06T06:21:15;26.50;57.21
64924;HTU21D;51436;44.692;39.214;2022-07-06T06:23:42;26.52;57.51
64924;HTU21D;51436;44.692;39.214;2022-07-06T06:26:08;26.57;57.52
64924;HTU21D;51436;44.692;39.214;2022-07-06T06:28:51;26.69;57.26
64924;HTU21D;51436;44.692;39.214;2022-07-06T06:31:18;26.82;56.48
64924;HTU21D;51436;44.692;39.214;2022-07-06T06:33:44;26.83;56.64
64924;HTU21D;51436;44.692;39.214;2022-07-06T06:36:14;26.95;57.07
64924;HTU21D;51436;44.692;39.214;2022-07-06T06:38:43;26.99;56.67
64924;HTU21D;51436;44.692;39.214;2022-07-06T06:41:10;27.05;57.10
64924;HTU21D;51436;44.692;39.214;2022-07-06T06:43:37;27.07;56.58
64924;HTU21D;51436;44.692;39.214;2022-07-06T06:46:27;27.15;56.39
64924;HTU21D;51436;44.692;39.214;2022-07-06T06:49:13;27.24;55.77
64924;HTU21D;51436;44.692;39.214;2022-07-06T06:51:40;27.26;55.82
64924;HTU21D;51436;44.692;39.214;2022-07-06T06:54:06;27.31;55.80
64924;HTU21D;51436;44.692;39.214;2022-07-06T06:56:33;27.41;55.74
64924;HTU21D;51436;44.692;39.214;2022-07-06T06:59:18;27.53;55.76
64924;HTU21D;51436;44.692;39.214;2022-07-06T07:01:45;27.66;55.62
64924;HTU21D;51436;44.692;39.214;2022-07-06T07:04:40;27.74;55.29
64924;HTU21D;51436;44.692;39.214;2022-07-06T07:07:27;27.80;54.68
64924;HTU21D;51436;44.692;39.214;2022-07-06T07:09:53;27.86;54.65
64924;HTU21D;51436;44.692;39.214;2022-07-06T07:12:20;27.94;54.31
64924;HTU21D;51436;44.692;39.214;2022-07-06T07:14:59;27.96;53.96
64924;HTU21D;51436;44.692;39.214;2022-07-06T07:17:45;28.04;53.35
64924;HTU21D;51436;44.692;39.214;2022-07-06T07:20:12;28.10;53.51
64924;HTU21D;51436;44.692;39.214;2022-07-06T07:22:38;28.20;53.24
64924;HTU21D;51436;44.692;39.214;2022-07-06T07:25:06;28.29;53.37
64924;HTU21D;51436;44.692;39.214;2022-07-06T07:27:33;28.40;52.56
64924;HTU21D;51436;44.692;39.214;2022-07-06T07:30:07;28.48;52.49
64924;HTU21D;51436;44.692;39.214;2022-07-06T07:32:34;28.59;52.29
64924;HTU21D;51436;44.692;39.214;2022-07-06T07:35:01;28.71;51.79
64924;HTU21D;51436;44.692;39.214;2022-07-06T07:37:28;28.82;51.48
64924;HTU21D;51436;44.692;39.214;2022-07-06T07:39:58;28.86;51.38
64924;HTU21D;51436;44.692;39.214;2022-07-06T07:42:25;28.91;50.85
64924;HTU21D;51436;44.692;39.214;2022-07-06T07:44:52;28.98;50.90
64924;HTU21D;51436;44.692;39.214;2022-07-06T07:47:19;29.05;50.46
64924;HTU21D;51436;44.692;39.214;2022-07-06T07:49:46;29.17;49.14
64924;HTU21D;51436;44.692;39.214;2022-07-06T07:52:13;29.24;48.37
64924;HTU21D;51436;44.692;39.214;2022-07-06T07:55:00;29.32;47.14
64924;HTU21D;51436;44.692;39.214;2022-07-06T07:57:27;29.41;46.63
64924;HTU21D;51436;44.692;39.214;2022-07-06T07:59:54;29.46;45.92
64924;HTU21D;51436;44.692;39.214;2022-07-06T08:02:21;29.57;46.10
64924;HTU21D;51436;44.692;39.214;2022-07-06T08:04:48;29.65;44.94
64924;HTU21D;51436;44.692;39.214;2022-07-06T08:07:15;29.72;44.68
64924;HTU21D;51436;44.692;39.214;2022-07-06T08:09:42;29.77;43.84
64924;HTU21D;51436;44.692;39.214;2022-07-06T08:12:09;29.82;42.58
64924;HTU21D;51436;44.692;39.214;2022-07-06T08:14:46;29.87;42.35
64924;HTU21D;51436;44.692;39.214;2022-07-06T08:17:12;29.91;42.72
64924;HTU21D;51436;44.692;39.214;2022-07-06T08:19:40;29.97;41.58
64924;HTU21D;51436;44.692;39.214;2022-07-06T08:22:08;30.04;41.51
64924;HTU21D;51436;44.692;39.214;2022-07-06T08:24:36;30.07;41.01
64924;HTU21D;51436;44.692;39.214;2022-07-06T08:27:03;30.12;40.97
64924;HTU21D;51436;44.692;39.214;2022-07-06T08:29:30;30.17;40.51
64924;HTU21D;51436;44.692;39.214;2022-07-06T08:31:57;30.21;39.81
64924;HTU21D;51436;44.692;39.214;2022-07-06T08:34:24;30.24;38.54
64924;HTU21D;51436;44.692;39.214;2022-07-06T08:36:51;30.27;38.88
64924;HTU21D;51436;44.692;39.214;2022-07-06T08:39:18;30.34;38.32
64924;HTU21D;51436;44.692;39.214;2022-07-06T08:41:47;30.36;37.74
64924;HTU21D;51436;44.692;39.214;2022-07-06T08:44:18;30.37;37.50
64924;HTU21D;51436;44.692;39.214;2022-07-06T08:46:45;30.44;37.71
64924;HTU21D;51436;44.692;39.214;2022-07-06T08:49:23;30.46;37.32
64924;HTU21D;51436;44.692;39.214;2022-07-06T08:51:51;30.48;37.70
64924;HTU21D;51436;44.692;39.214;2022-07-06T08:54:20;30.53;36.99
64924;HTU21D;51436;44.692;39.214;2022-07-06T08:56:49;30.55;37.05
64924;HTU21D;51436;44.692;39.214;2022-07-06T08:59:16;30.61;36.76
64924;HTU21D;51436;44.692;39.214;2022-07-06T09:01:44;30.62;36.72
64924;HTU21D;51436;44.692;39.214;2022-07-06T09:04:16;30.62;36.93
64924;HTU21D;51436;44.692;39.214;2022-07-06T09:06:46;30.67;36.43
64924;HTU21D;51436;44.692;39.214;2022-07-06T09:09:19;30.66;36.49
64924;HTU21D;51436;44.692;39.214;2022-07-06T09:11:49;30.69;36.97
64924;HTU21D;51436;44.692;39.214;2022-07-06T09:14:16;30.74;36.52
64924;HTU21D;51436;44.692;39.214;2022-07-06T09:16:44;30.74;36.56
64924;HTU21D;51436;44.692;39.214;2022-07-06T09:19:12;30.78;36.05
64924;HTU21D;51436;44.692;39.214;2022-07-06T09:21:40;30.76;35.67
64924;HTU21D;51436;44.692;39.214;2022-07-06T09:24:16;30.79;35.44
64924;HTU21D;51436;44.692;39.214;2022-07-06T09:26:43;30.83;35.02
64924;HTU21D;51436;44.692;39.214;2022-07-06T09:29:11;30.87;34.11
64924;HTU21D;51436;44.692;39.214;2022-07-06T09:31:39;30.90;34.34
64924;HTU21D;51436;44.692;39.214;2022-07-06T09:34:08;30.94;34.31
64924;HTU21D;51436;44.692;39.214;2022-07-06T09:36:47;30.99;33.97
64924;HTU21D;51436;44.692;39.214;2022-07-06T09:39:16;30.99;33.90
64924;HTU21D;51436;44.692;39.214;2022-07-06T09:41:44;31.00;33.79
64924;HTU21D;51436;44.692;39.214;2022-07-06T09:44:12;31.02;33.82
64924;HTU21D;51436;44.692;39.214;2022-07-06T09:46:42;31.00;33.88
64924;HTU21D;51436;44.692;39.214;2022-07-06T09:49:09;31.04;34.91
64924;HTU21D;51436;44.692;39.214;2022-07-06T09:51:37;31.08;34.31
64924;HTU21D;51436;44.692;39.214;2022-07-06T09:54:08;31.04;34.40
64924;HTU21D;51436;44.692;39.214;2022-07-06T09:56:39;31.08;34.23
64924;HTU21D;51436;44.692;39.214;2022-07-06T09:59:11;31.10;34.19
64924;HTU21D;51436;44.692;39.214;2022-07-06T10:01:38;31.08;33.33
64924;HTU21D;51436;44.692;39.214;2022-07-06T10:04:07;31.07;33.09
64924;HTU21D;51436;44.692;39.214;2022-07-06T10:06:34;31.11;33.19
64924;HTU21D;51436;44.692;39.214;2022-07-06T10:09:05;31.11;33.29
64924;HTU21D;51436;44.692;39.214;2022-07-06T10:11:34;31.15;33.25
64924;HTU21D;51436;44.692;39.214;2022-07-06T10:14:05;31.14;33.28
64924;HTU21D;51436;44.692;39.214;2022-07-06T10:16:37;31.16;33.66
64924;HTU21D;51436;44.692;39.214;2022-07-06T10:19:09;31.21;33.13
64924;HTU21D;51436;44.692;39.214;2022-07-06T10:21:37;31.24;32.75
64924;HTU21D;51436;44.692;39.214;2022-07-06T10:24:05;31.19;32.86
64924;HTU21D;51436;44.692;39.214;2022-07-06T10:26:33;31.19;31.86
64924;HTU21D;51436;44.692;39.214;2022-07-06T10:29:04;31.22;31.70
64924;HTU21D;51436;44.692;39.214;2022-07-06T10:31:33;31.24;31.41
64924;HTU21D;51436;44.692;39.214;2022-07-06T10:34:03;31.25;31.12
64924;HTU21D;51436;44.692;39.214;2022-07-06T10:36:31;31.23;31.31
64924;HTU21D;51436;44.692;39.214;2022-07-06T10:39:03;31.24;31.77
64924;HTU21D;51436;44.692;39.214;2022-07-06T10:41:50;31.23;31.40
64924;HTU21D;51436;44.692;39.214;2022-07-06T10:44:19;31.25;31.58
64924;HTU21D;51436;44.692;39.214;2022-07-06T10:46:57;31.26;31.45
64924;HTU21D;51436;44.692;39.214;2022-07-06T10:49:25;31.26;31.17
64924;HTU21D;51436;44.692;39.214;2022-07-06T10:51:53;31.26;30.43
64924;HTU21D;51436;44.692;39.214;2022-07-06T10:54:23;31.23;30.64
64924;HTU21D;51436;44.692;39.214;2022-07-06T10:56:51;31.26;30.97
64924;HTU21D;51436;44.692;39.214;2022-07-06T10:59:23;31.24;31.32
64924;HTU21D;51436;44.692;39.214;2022-07-06T11:02:12;31.26;31.16
64924;HTU21D;51436;44.692;39.214;2022-07-06T11:04:45;31.29;30.72
64924;HTU21D;51436;44.692;39.214;2022-07-06T11:07:14;31.33;31.41
64924;HTU21D;51436;44.692;39.214;2022-07-06T11:10:03;31.37;31.58
64924;HTU21D;51436;44.692;39.214;2022-07-06T11:12:29;31.42;32.31
64924;HTU21D;51436;44.692;39.214;2022-07-06T11:14:55;31.51;31.29
64924;HTU21D;51436;44.692;39.214;2022-07-06T11:17:22;31.50;31.16
64924;HTU21D;51436;44.692;39.214;2022-07-06T11:19:56;31.42;30.81
64924;HTU21D;51436;44.692;39.214;2022-07-06T11:22:26;31.43;31.05
64924;HTU21D;51436;44.692;39.214;2022-07-06T11:24:54;31.45;30.87
64924;HTU21D;51436;44.692;39.214;2022-07-06T11:27:23;31.43;29.97
64924;HTU21D;51436;44.692;39.214;2022-07-06T11:29:51;31.41;30.18
64924;HTU21D;51436;44.692;39.214;2022-07-06T11:32:23;31.40;30.42
64924;HTU21D;51436;44.692;39.214;2022-07-06T11:34:51;31.40;29.60
64924;HTU21D;51436;44.692;39.214;2022-07-06T11:37:18;31.38;29.11
64924;HTU21D;51436;44.692;39.214;2022-07-06T11:39:46;31.37;29.03
64924;HTU21D;51436;44.692;39.214;2022-07-06T11:42:16;31.39;28.90
64924;HTU21D;51436;44.692;39.214;2022-07-06T11:44:46;31.41;28.71
64924;HTU21D;51436;44.692;39.214;2022-07-06T11:47:14;31.43;28.67
64924;HTU21D;51436;44.692;39.214;2022-07-06T11:49:41;31.46;28.76
64924;HTU21D;51436;44.692;39.214;2022-07-06T11:52:45;31.45;29.34
64924;HTU21D;51436;44.692;39.214;2022-07-06T11:55:14;31.48;28.75
64924;HTU21D;51436;44.692;39.214;2022-07-06T11:57:41;31.46;28.00
64924;HTU21D;51436;44.692;39.214;2022-07-06T12:00:10;31.48;27.97
64924;HTU21D;51436;44.692;39.214;2022-07-06T12:02:40;31.49;27.81
64924;HTU21D;51436;44.692;39.214;2022-07-06T12:05:07;31.49;27.89
64924;HTU21D;51436;44.692;39.214;2022-07-06T12:07:34;31.52;28.74
64924;HTU21D;51436;44.692;39.214;2022-07-06T12:10:01;31.55;27.77
64924;HTU21D;51436;44.692;39.214;2022-07-06T12:12:28;31.54;27.65
64924;HTU21D;51436;44.692;39.214;2022-07-06T12:15:06;31.54;28.41
64924;HTU21D;51436;44.692;39.214;2022-07-06T12:17:33;31.54;27.92
64924;HTU21D;51436;44.692;39.214;2022-07-06T12:20:00;31.54;27.18
64924;HTU21D;51436;44.692;39.214;2022-07-06T12:22:27;31.56;27.97
64924;HTU21D;51436;44.692;39.214;2022-07-06T12:24:53;31.59;27.84
64924;HTU21D;51436;44.692;39.214;2022-07-06T12:27:20;31.59;27.41
64924;HTU21D;51436;44.692;39.214;2022-07-06T12:29:47;31.57;28.13
64924;HTU21D;51436;44.692;39.214;2022-07-06T12:32:22;31.56;27.76
64924;HTU21D;51436;44.692;39.214;2022-07-06T12:35:07;31.54;27.76
64924;HTU21D;51436;44.692;39.214;2022-07-06T12:37:37;31.51;27.57
64924;HTU21D;51436;44.692;39.214;2022-07-06T12:40:14;31.52;27.76
64924;HTU21D;51436;44.692;39.214;2022-07-06T12:42:47;31.52;27.70
64924;HTU21D;51436;44.692;39.214;2022-07-06T12:45:14;31.52;28.05
64924;HTU21D;51436;44.692;39.214;2022-07-06T12:47:41;31.54;28.36
64924;HTU21D;51436;44.692;39.214;2022-07-06T12:50:39;31.57;28.93
64924;HTU21D;51436;44.692;39.214;2022-07-06T12:53:25;31.57;28.45
64924;HTU21D;51436;44.692;39.214;2022-07-06T12:56:13;31.55;28.61
64924;HTU21D;51436;44.692;39.214;2022-07-06T12:58:55;31.57;28.55
64924;HTU21D;51436;44.692;39.214;2022-07-06T13:01:22;31.56;27.84
64924;HTU21D;51436;44.692;39.214;2022-07-06T13:03:56;31.58;28.20
64924;HTU21D;51436;44.692;39.214;2022-07-06T13:06:30;31.56;28.18
64924;HTU21D;51436;44.692;39.214;2022-07-06T13:08:57;31.54;27.91
64924;HTU21D;51436;44.692;39.214;2022-07-06T13:11:24;31.51;27.74
64924;HTU21D;51436;44.692;39.214;2022-07-06T13:13:53;31.52;28.16
64924;HTU21D;51436;44.692;39.214;2022-07-06T13:16:20;31.54;28.22
64924;HTU21D;51436;44.692;39.214;2022-07-06T13:18:50;31.51;28.68
64924;HTU21D;51436;44.692;39.214;2022-07-06T13:21:17;31.51;28.33
64924;HTU21D;51436;44.692;39.214;2022-07-06T13:23:43;31.53;28.63
64924;HTU21D;51436;44.692;39.214;2022-07-06T13:26:10;31.54;28.60
64924;HTU21D;51436;44.692;39.214;2022-07-06T13:28:37;31.54;28.36
64924;HTU21D;51436;44.692;39.214;2022-07-06T13:31:03;31.53;28.76
64924;HTU21D;51436;44.692;39.214;2022-07-06T13:33:30;31.52;28.16
64924;HTU21D;51436;44.692;39.214;2022-07-06T13:35:57;31.52;28.23
64924;HTU21D;51436;44.692;39.214;2022-07-06T13:38:25;31.53;28.41
64924;HTU21D;51436;44.692;39.214;2022-07-06T13:40:52;31.50;28.33
64924;HTU21D;51436;44.692;39.214;2022-07-06T13:43:19;31.51;28.39
64924;HTU21D;51436;44.692;39.214;2022-07-06T13:45:47;31.51;28.70
64924;HTU21D;51436;44.692;39.214;2022-07-06T13:48:13;31.49;28.89
64924;HTU21D;51436;44.692;39.214;2022-07-06T13:50:40;31.49;28.97
64924;HTU21D;51436;44.692;39.214;2022-07-06T13:53:07;31.48;29.18
64924;HTU21D;51436;44.692;39.214;2022-07-06T13:55:35;31.49;29.39
64924;HTU21D;51436;44.692;39.214;2022-07-06T13:58:21;31.50;29.55
64924;HTU21D;51436;44.692;39.214;2022-07-06T14:00:48;31.50;29.85
64924;HTU21D;51436;44.692;39.214;2022-07-06T14:03:15;31.46;29.64
64924;HTU21D;51436;44.692;39.214;2022-07-06T14:05:42;31.44;29.60
64924;HTU21D;51436;44.692;39.214;2022-07-06T14:08:09;31.43;30.32
64924;HTU21D;51436;44.692;39.214;2022-07-06T14:10:44;31.41;30.67
64924;HTU21D;51436;44.692;39.214;2022-07-06T14:13:15;31.41;30.55
64924;HTU21D;51436;44.692;39.214;2022-07-06T14:15:43;31.41;30.89
64924;HTU21D;51436;44.692;39.214;2022-07-06T14:18:10;31.42;31.27
64924;HTU21D;51436;44.692;39.214;2022-07-06T14:20:36;31.41;30.82
64924;HTU21D;51436;44.692;39.214;2022-07-06T14:23:03;31.41;30.87
64924;HTU21D;51436;44.692;39.214;2022-07-06T14:25:39;31.38;30.93
64924;HTU21D;51436;44.692;39.214;2022-07-06T14:28:06;31.36;30.57
64924;HTU21D;51436;44.692;39.214;2022-07-06T14:30:34;31.35;30.32
64924;HTU21D;51436;44.692;39.214;2022-07-06T14:33:04;31.31;30.35
64924;HTU21D;51436;44.692;39.214;2022-07-06T14:35:37;31.30;30.48
64924;HTU21D;51436;44.692;39.214;2022-07-06T14:38:04;31.28;30.80
64924;HTU21D;51436;44.692;39.214;2022-07-06T14:40:31;31.26;30.68
64924;HTU21D;51436;44.692;39.214;2022-07-06T14:43:16;31.23;30.81
64924;HTU21D;51436;44.692;39.214;2022-07-06T14:45:44;31.22;30.64
64924;HTU21D;51436;44.692;39.214;2022-07-06T14:48:12;31.20;30.76
64924;HTU21D;51436;44.692;39.214;2022-07-06T14:50:48;31.16;31.10
64924;HTU21D;51436;44.692;39.214;2022-07-06T14:53:15;31.13;31.28
64924;HTU21D;51436;44.692;39.214;2022-07-06T14:55:47;31.12;30.93
64924;HTU21D;51436;44.692;39.214;2022-07-06T14:58:23;31.09;31.17
64924;HTU21D;51436;44.692;39.214;2022-07-06T15:00:59;31.05;31.23
64924;HTU21D;51436;44.692;39.214;2022-07-06T15:03:27;31.01;31.48
64924;HTU21D;51436;44.692;39.214;2022-07-06T15:05:54;31.00;31.57
64924;HTU21D;51436;44.692;39.214;2022-07-06T15:08:26;30.97;31.55
64924;HTU21D;51436;44.692;39.214;2022-07-06T15:10:52;30.93;31.55
64924;HTU21D;51436;44.692;39.214;2022-07-06T15:13:20;30.90;31.99
64924;HTU21D;51436;44.692;39.214;2022-07-06T15:15:54;30.86;32.27
64924;HTU21D;51436;44.692;39.214;2022-07-06T15:18:26;30.82;32.51
64924;HTU21D;51436;44.692;39.214;2022-07-06T15:20:53;30.77;32.93
64924;HTU21D;51436;44.692;39.214;2022-07-06T15:23:20;30.71;32.98
64924;HTU21D;51436;44.692;39.214;2022-07-06T15:25:47;30.66;33.10